South Dennis, Massachusetts
Current Conditions -  °F | °C
As of 1:22 PM on Friday 28 Nov 2014 (Local Time) from KHYA Reporting Station
Light Snow Light Snow  
Wind Chill: 22°   Ceiling: 2300
Heat Index: 32°   Visibility: 2mi
Dew Point: 26°   Wind: 14mph
Humidity: 79%   Direction: 340°NNW
Pressure: 30.01"   Gusts: 23mph
Location:  41.7°N, 70.16°W
Report Text: KHYA 281822Z 34012G20KT 2SM -SN BKN023 OVC034 00/M03 A3001 RMK AO2 VIS 1 1/2V4 P0000 T00001033
Loading
Personal Weather Stations






























Interactive Weather Map New forecast layout! Learn more

10-Day Weather Forecast

Advertisements
Track Severe Weather on mobile